Terminal Aerodrome Forecast
Issued by NWS

Home | Current Version | Previous Version | Text Only | Print | Product List | Glossary On
Versions: 1 2 3 4 5 6 7 8 9 10 11 12 13 14 15 16 17 18 19 20 21 22 23 24 25 26 27 28 29 30 31 32 33 34 35 36 37 38 39 40
000
FTUS43 KGRB 161403 AAA
TAFATW
TAF AMD
KATW 161403Z 1614/1712 33010G17KT 6SM -SN SCT012 OVC025
      TEMPO 1614/1615 5SM -SHSN BKN012
     FM161500 33014G21KT P6SM -SHSN OVC014
     FM162100 31014G22KT P6SM -SHSN OVC026
     FM170000 31012KT P6SM -SHSN OVC040
     FM170400 30011KT P6SM BKN027
     FM171000 30011KT P6SM BKN028=

USA.gov is the U.S. government's official web portal to all federal, state and local government web resources and services.